createdAt,value
2019-02-19T00:02:14.061Z,52.90
2019-02-19T00:04:42.546Z,53.00
2019-02-19T00:07:11.281Z,53.20
2019-02-19T00:09:39.701Z,53.40
2019-02-19T00:12:08.203Z,53.60
2019-02-19T00:14:36.621Z,54.00
2019-02-19T00:17:05.490Z,54.10
2019-02-19T00:19:34.298Z,54.30
2019-02-19T00:22:02.741Z,54.40
2019-02-19T00:24:31.227Z,54.40
2019-02-19T00:26:59.740Z,54.40
2019-02-19T00:29:28.419Z,54.60
2019-02-19T00:31:56.907Z,54.80
2019-02-19T00:34:25.719Z,55.00
2019-02-19T00:36:54.474Z,55.10
2019-02-19T00:39:22.901Z,55.20
2019-02-19T00:41:51.342Z,55.40
2019-02-19T00:44:20.117Z,55.50
2019-02-19T00:46:48.635Z,55.60
2019-02-19T00:49:17.495Z,55.60
2019-02-19T00:51:46.193Z,55.60
2019-02-19T00:54:14.866Z,55.60
2019-02-19T00:56:43.655Z,55.60
2019-02-19T00:59:12.099Z,55.70
2019-02-19T01:01:40.854Z,55.60
2019-02-19T01:04:09.571Z,55.70
2019-02-19T01:06:38.387Z,55.80
2019-02-19T01:09:08.774Z,55.70
2019-02-19T01:11:37.805Z,55.80
2019-02-19T01:14:06.211Z,55.80
2019-02-19T01:16:34.690Z,55.90
2019-02-19T01:19:03.364Z,56.00
2019-02-19T01:21:31.803Z,56.40
2019-02-19T01:24:00.198Z,56.70
2019-02-19T01:26:28.629Z,57.10
2019-02-19T01:28:58.311Z,57.40
2019-02-19T01:31:27.043Z,57.40
2019-02-19T01:33:55.902Z,57.60
2019-02-19T01:36:24.409Z,57.80
2019-02-19T01:38:52.826Z,58.00
2019-02-19T01:41:21.279Z,58.10
2019-02-19T01:43:49.692Z,58.30
2019-02-19T01:46:18.131Z,58.40
2019-02-19T01:48:46.545Z,58.60
2019-02-19T01:51:15.008Z,58.80
2019-02-19T01:53:43.818Z,59.20
2019-02-19T01:56:12.258Z,60.00
2019-02-19T01:58:40.684Z,59.70
2019-02-19T02:01:09.402Z,59.90
2019-02-19T02:03:37.802Z,60.30
2019-02-19T02:06:06.529Z,60.70
2019-02-19T02:08:35.338Z,61.00
2019-02-19T02:11:04.110Z,61.50
2019-02-19T02:13:32.796Z,62.50
2019-02-19T02:16:01.258Z,62.20
2019-02-19T02:18:29.667Z,62.70
2019-02-19T02:20:58.435Z,63.20
2019-02-19T02:23:26.849Z,63.10
2019-02-19T02:25:55.315Z,63.50
2019-02-19T02:28:24.087Z,63.90
2019-02-19T02:30:52.866Z,64.40
2019-02-19T02:33:21.288Z,64.80
2019-02-19T02:35:49.732Z,65.20
2019-02-19T02:38:18.146Z,65.40
2019-02-19T02:40:46.901Z,65.90
2019-02-19T02:43:15.322Z,66.30
2019-02-19T02:45:52.836Z,66.90
2019-02-19T02:48:13.931Z,67.30
2019-02-19T02:50:42.670Z,67.90
2019-02-19T02:53:11.076Z,68.30
2019-02-19T02:55:39.513Z,68.60
2019-02-19T02:58:07.985Z,68.80
2019-02-19T03:00:36.631Z,69.20
2019-02-19T03:03:05.678Z,69.60
2019-02-19T03:05:35.853Z,70.00
2019-02-19T03:08:05.258Z,70.50
2019-02-19T03:10:34.003Z,71.10
2019-02-19T03:13:02.411Z,71.40
2019-02-19T03:15:30.854Z,72.00
2019-02-19T03:17:59.278Z,72.40
2019-02-19T03:20:27.756Z,72.80
2019-02-19T03:22:56.488Z,73.00
2019-02-19T03:25:25.274Z,73.30
2019-02-19T03:27:53.964Z,73.80
2019-02-19T03:30:22.407Z,75.00
2019-02-19T03:32:51.335Z,75.10
2019-02-19T03:35:19.750Z,75.70
2019-02-19T03:37:48.166Z,76.40
2019-02-19T03:40:16.622Z,76.90
2019-02-19T03:42:45.357Z,77.40
2019-02-19T03:45:13.863Z,77.70
2019-02-19T03:47:42.320Z,78.00
2019-02-19T03:50:10.850Z,78.70
2019-02-19T03:52:39.590Z,79.20
2019-02-19T03:55:08.163Z,79.70
2019-02-19T03:57:36.614Z,80.30
2019-02-19T04:00:06.399Z,81.20
2019-02-19T04:02:35.426Z,81.80
2019-02-19T04:05:04.116Z,82.40
2019-02-19T04:07:32.761Z,83.10
2019-02-19T04:10:01.176Z,83.90
2019-02-19T04:12:29.608Z,85.10
2019-02-19T04:14:58.049Z,86.00
2019-02-19T04:17:26.458Z,87.60
2019-02-19T04:19:54.910Z,87.80
2019-02-19T04:22:23.374Z,88.40
2019-02-19T04:24:51.791Z,88.70
2019-02-19T04:27:20.586Z,88.80
2019-02-19T04:29:49.020Z,89.20
2019-02-19T04:32:17.477Z,89.40
2019-02-19T04:34:45.886Z,89.40
2019-02-19T04:37:14.303Z,89.80
2019-02-19T04:39:43.189Z,90.00
2019-02-19T04:42:11.599Z,90.10
2019-02-19T04:44:40.029Z,90.10
2019-02-19T04:47:08.456Z,90.20
2019-02-19T04:49:36.886Z,90.40
2019-02-19T04:52:05.781Z,90.40
2019-02-19T04:54:34.221Z,90.40
2019-02-19T04:57:02.641Z,90.40
2019-02-19T04:59:31.068Z,90.40
2019-02-19T05:01:59.486Z,90.30
2019-02-19T05:04:28.112Z,90.30
2019-02-19T05:06:56.872Z,90.40
2019-02-19T05:09:25.578Z,90.50
2019-02-19T05:11:54.847Z,90.50
2019-02-19T05:14:23.294Z,90.90
2019-02-19T05:16:52.018Z,91.10
2019-02-19T05:19:20.462Z,91.20
2019-02-19T05:21:49.387Z,91.30
2019-02-19T05:24:18.083Z,91.10
2019-02-19T05:26:46.492Z,91.80
2019-02-19T05:29:15.242Z,91.90
2019-02-19T05:31:43.638Z,92.00
2019-02-19T05:34:12.074Z,92.40
2019-02-19T05:36:40.490Z,92.40
2019-02-19T05:39:08.929Z,92.70
2019-02-19T05:41:37.332Z,92.80
2019-02-19T05:44:05.768Z,92.90
2019-02-19T05:46:34.508Z,93.10
2019-02-19T05:49:02.960Z,93.30
2019-02-19T05:51:31.698Z,93.30
2019-02-19T05:54:00.449Z,93.40
2019-02-19T05:56:28.863Z,93.40
2019-02-19T05:58:57.297Z,93.30
2019-02-19T06:01:25.721Z,93.40
2019-02-19T06:03:54.151Z,93.60
2019-02-19T06:06:22.569Z,93.70
2019-02-19T06:08:51.170Z,93.90
2019-02-19T06:11:19.595Z,94.00
2019-02-19T06:13:48.007Z,94.10
2019-02-19T06:16:16.443Z,94.00
2019-02-19T06:18:44.855Z,94.10
2019-02-19T06:21:13.738Z,94.00
2019-02-19T06:23:42.455Z,94.00
2019-02-19T06:26:10.930Z,94.00
2019-02-19T06:28:39.691Z,94.00
2019-02-19T06:31:08.154Z,94.10
2019-02-19T06:33:36.580Z,94.20
2019-02-19T06:36:05.466Z,94.10
2019-02-19T06:38:33.871Z,94.00
2019-02-19T06:41:02.322Z,94.10
2019-02-19T06:43:30.987Z,94.20
2019-02-19T06:45:59.543Z,94.60
2019-02-19T06:48:27.994Z,94.60
2019-02-19T06:50:56.842Z,94.50
2019-02-19T06:53:25.262Z,94.40
2019-02-19T06:55:53.705Z,94.50
2019-02-19T06:58:22.117Z,94.20
2019-02-19T07:00:50.798Z,94.00
2019-02-19T07:03:26.814Z,94.00
2019-02-19T07:05:55.443Z,93.80
2019-02-19T07:08:23.843Z,93.80
2019-02-19T07:10:52.573Z,93.70
2019-02-19T07:13:21.186Z,93.90
2019-02-19T07:15:49.595Z,94.00
2019-02-19T07:18:18.343Z,94.10
2019-02-19T07:20:46.787Z,94.20
2019-02-19T07:23:15.497Z,94.10
2019-02-19T07:25:44.297Z,94.00
2019-02-19T07:28:12.729Z,94.10
2019-02-19T07:30:41.421Z,94.10
2019-02-19T07:33:10.110Z,94.30
2019-02-19T07:35:38.557Z,94.20
2019-02-19T07:38:07.197Z,94.00
2019-02-19T07:40:35.718Z,94.00
2019-02-19T07:43:04.227Z,94.00
2019-02-19T07:45:33.030Z,94.10
2019-02-19T07:48:01.740Z,93.90
2019-02-19T07:50:30.137Z,93.60
2019-02-19T07:52:58.581Z,94.00
2019-02-19T07:55:26.989Z,94.20
2019-02-19T07:57:55.752Z,94.20
2019-02-19T08:00:24.420Z,94.20
2019-02-19T08:02:53.055Z,94.30
2019-02-19T08:05:21.929Z,94.20
2019-02-19T08:07:50.990Z,94.10
2019-02-19T08:10:19.402Z,94.00
2019-02-19T08:12:47.847Z,94.20
2019-02-19T08:15:16.483Z,94.20
2019-02-19T08:17:44.891Z,94.20
2019-02-19T08:20:16.228Z,94.20
2019-02-19T08:22:43.922Z,94.30
2019-02-19T08:25:12.334Z,94.20
2019-02-19T08:27:41.087Z,94.10
2019-02-19T08:30:11.231Z,93.90
2019-02-19T08:32:39.854Z,94.10
2019-02-19T08:35:08.595Z,94.20
2019-02-19T08:37:37.046Z,94.00
2019-02-19T08:40:08.697Z,93.90
2019-02-19T08:42:37.515Z,94.00
2019-02-19T08:45:08.340Z,94.20
2019-02-19T08:47:42.515Z,94.00
2019-02-19T08:50:08.503Z,94.00
2019-02-19T08:52:36.946Z,93.70
2019-02-19T08:55:06.490Z,93.60
2019-02-19T08:57:35.252Z,93.70
2019-02-19T09:00:05.563Z,93.80
2019-02-19T09:02:34.315Z,93.50
2019-02-19T09:05:03.005Z,93.80
2019-02-19T09:07:31.453Z,93.70
2019-02-19T09:10:00.807Z,93.70
2019-02-19T09:12:29.441Z,93.70
2019-02-19T09:14:57.842Z,93.90
2019-02-19T09:17:26.544Z,93.50
2019-02-19T09:19:55.276Z,93.60
2019-02-19T09:22:24.055Z,93.40
2019-02-19T09:24:53.039Z,93.40
2019-02-19T09:27:21.718Z,93.20
2019-02-19T09:29:50.117Z,93.10
2019-02-19T09:32:19.104Z,92.90
2019-02-19T09:34:47.776Z,92.30
2019-02-19T09:37:17.185Z,92.20
2019-02-19T09:39:45.596Z,92.60
2019-02-19T09:42:14.578Z,92.40
2019-02-19T09:44:43.366Z,92.30
2019-02-19T09:47:11.933Z,92.00
2019-02-19T09:49:40.646Z,92.40
2019-02-19T09:52:09.382Z,92.20
2019-02-19T09:54:37.787Z,91.70
2019-02-19T09:57:06.660Z,91.60
2019-02-19T09:59:35.073Z,91.50
2019-02-19T10:02:03.684Z,90.90
2019-02-19T10:04:32.424Z,90.70
2019-02-19T10:07:01.146Z,90.60
2019-02-19T10:09:29.547Z,90.80
2019-02-19T10:11:58.268Z,90.70
2019-02-19T10:14:26.775Z,91.00
2019-02-19T10:16:55.188Z,90.80
2019-02-19T10:19:23.932Z,90.30
2019-02-19T10:21:52.332Z,90.30
2019-02-19T10:24:20.768Z,90.10
2019-02-19T10:26:49.735Z,89.10
2019-02-19T10:29:18.388Z,89.10
2019-02-19T10:31:47.131Z,89.20
2019-02-19T10:34:15.945Z,89.30
2019-02-19T10:36:44.431Z,88.40
2019-02-19T10:39:12.969Z,88.40
2019-02-19T10:41:41.370Z,89.00
2019-02-19T10:44:09.817Z,88.70
2019-02-19T10:46:38.533Z,89.20
2019-02-19T10:49:06.970Z,88.90
2019-02-19T10:51:35.390Z,87.80
2019-02-19T10:54:04.196Z,87.60
2019-02-19T10:56:32.878Z,86.90
2019-02-19T10:59:01.341Z,85.50
2019-02-19T11:01:29.756Z,85.20
2019-02-19T11:03:58.185Z,83.30
2019-02-19T11:06:26.895Z,84.20
2019-02-19T11:08:55.328Z,84.40
2019-02-19T11:11:24.067Z,81.50
2019-02-19T11:13:52.846Z,81.10
2019-02-19T11:16:21.257Z,80.10
2019-02-19T11:18:50.105Z,80.20
2019-02-19T11:21:19.883Z,79.70
2019-02-19T11:23:48.541Z,80.10
2019-02-19T11:26:17.291Z,79.40
2019-02-19T11:28:46.003Z,79.90
2019-02-19T11:31:14.767Z,81.00
2019-02-19T11:33:43.205Z,81.20
2019-02-19T11:36:11.627Z,81.00
2019-02-19T11:38:40.074Z,80.50
2019-02-19T11:41:08.486Z,80.30
2019-02-19T11:43:36.894Z,80.60
2019-02-19T11:46:05.749Z,79.60
2019-02-19T11:48:36.891Z,79.90
2019-02-19T11:51:04.758Z,79.60
2019-02-19T11:53:33.165Z,79.70
2019-02-19T11:56:01.920Z,79.70
2019-02-19T11:58:30.335Z,79.40
2019-02-19T12:00:59.028Z,79.00
2019-02-19T12:03:27.834Z,78.00
2019-02-19T12:05:56.324Z,78.00
2019-02-19T12:08:25.250Z,77.40
2019-02-19T12:10:53.686Z,77.70
2019-02-19T12:13:22.164Z,78.10
2019-02-19T12:15:51.125Z,78.30
2019-02-19T12:18:19.806Z,79.00
2019-02-19T12:20:48.241Z,78.60
2019-02-19T12:23:16.658Z,78.20
2019-02-19T12:25:45.435Z,78.30
2019-02-19T12:28:13.846Z,78.80
2019-02-19T12:30:42.290Z,79.40
2019-02-19T12:33:10.699Z,77.20
2019-02-19T12:35:39.139Z,76.50
2019-02-19T12:38:07.565Z,75.60
2019-02-19T12:40:36.078Z,75.50
2019-02-19T12:43:04.555Z,75.40
2019-02-19T12:45:33.279Z,75.20
2019-02-19T12:48:01.989Z,75.50
2019-02-19T12:50:30.418Z,74.90
2019-02-19T12:52:59.137Z,74.50
2019-02-19T12:55:27.626Z,74.80
2019-02-19T12:57:56.033Z,75.40
2019-02-19T13:00:24.718Z,75.40
2019-02-19T13:02:53.403Z,76.40
2019-02-19T13:05:21.810Z,76.80
2019-02-19T13:07:50.219Z,76.10
2019-02-19T13:10:18.731Z,77.00
2019-02-19T13:12:49.003Z,76.60
2019-02-19T13:15:19.454Z,76.30
2019-02-19T13:17:47.863Z,76.50
2019-02-19T13:20:16.302Z,76.60
2019-02-19T13:22:44.984Z,76.70
2019-02-19T13:25:13.870Z,77.00
2019-02-19T13:27:42.287Z,77.80
2019-02-19T13:30:18.800Z,77.70
2019-02-19T13:32:47.214Z,77.60
2019-02-19T13:35:15.765Z,77.90
2019-02-19T13:37:44.465Z,78.30
2019-02-19T13:40:17.738Z,78.60
2019-02-19T13:42:46.441Z,78.50
2019-02-19T13:45:15.827Z,78.50
2019-02-19T13:47:44.343Z,79.00
2019-02-19T13:50:24.896Z,78.70
2019-02-19T13:53:07.392Z,78.10
2019-02-19T13:55:51.664Z,78.40
2019-02-19T13:58:20.142Z,78.00
2019-02-19T14:00:50.471Z,77.20
2019-02-19T14:03:19.050Z,76.80
2019-02-19T14:05:47.742Z,76.70
2019-02-19T14:08:16.342Z,76.80
2019-02-19T14:10:45.100Z,76.70
2019-02-19T14:13:14.193Z,76.80
2019-02-19T14:15:59.783Z,77.40
2019-02-19T14:18:30.203Z,77.30
2019-02-19T14:21:06.098Z,76.90
2019-02-19T14:23:36.146Z,77.00
2019-02-19T14:26:09.664Z,76.80
2019-02-19T14:28:51.762Z,76.30
2019-02-19T14:31:24.667Z,76.30
2019-02-19T14:33:57.898Z,76.40
2019-02-19T14:36:40.373Z,76.60
2019-02-19T14:39:22.661Z,76.70
2019-02-19T14:41:55.971Z,76.70
2019-02-19T14:44:44.451Z,76.80
2019-02-19T14:47:23.316Z,76.70
2019-02-19T14:50:09.780Z,76.50
2019-02-19T14:52:46.190Z,77.20
2019-02-19T14:55:16.306Z,76.50
2019-02-19T14:57:55.870Z,76.60
2019-02-19T15:00:35.410Z,76.50
2019-02-19T15:03:14.367Z,76.70
2019-02-19T15:05:50.884Z,76.50
2019-02-19T15:08:37.097Z,76.90
2019-02-19T15:11:16.514Z,76.40
2019-02-19T15:13:49.414Z,76.40
2019-02-19T15:16:22.812Z,76.60
2019-02-19T15:19:02.551Z,76.20
2019-02-19T15:21:35.670Z,76.10
2019-02-19T15:24:11.942Z,75.80
2019-02-19T15:26:42.105Z,75.60
2019-02-19T15:29:18.190Z,76.00
2019-02-19T15:31:48.603Z,76.30
2019-02-19T15:34:34.018Z,75.70
2019-02-19T15:37:10.833Z,76.10
2019-02-19T15:39:50.396Z,76.20
2019-02-19T15:42:29.525Z,76.40
2019-02-19T15:45:14.678Z,76.30
2019-02-19T15:48:00.058Z,75.90
2019-02-19T15:50:42.391Z,75.80
2019-02-19T15:53:15.210Z,76.20
2019-02-19T15:55:48.270Z,76.00
2019-02-19T15:58:27.595Z,75.90
2019-02-19T16:01:13.854Z,75.80
2019-02-19T16:03:43.937Z,75.60
2019-02-19T16:06:23.550Z,76.10
2019-02-19T16:08:53.963Z,75.50
2019-02-19T16:11:24.011Z,75.70
2019-02-19T16:14:00.159Z,75.40
2019-02-19T16:16:30.291Z,75.70
2019-02-19T16:19:00.386Z,75.80
2019-02-19T16:21:30.713Z,75.80
2019-02-19T16:24:03.647Z,75.60
2019-02-19T16:26:34.012Z,75.80
2019-02-19T16:29:04.436Z,75.90
2019-02-19T16:31:52.583Z,76.20
2019-02-19T16:34:25.692Z,75.90
2019-02-19T16:37:04.608Z,75.50
2019-02-19T16:39:37.682Z,75.40
2019-02-19T16:42:07.735Z,75.90
2019-02-19T16:44:47.140Z,76.00
2019-02-19T16:47:17.210Z,75.80
2019-02-19T16:49:50.339Z,75.60
2019-02-19T16:52:23.142Z,75.80
2019-02-19T16:54:53.306Z,75.10
2019-02-19T16:57:26.568Z,75.30
2019-02-19T16:59:59.298Z,75.50
2019-02-19T17:02:29.423Z,75.20
2019-02-19T17:05:02.484Z,75.00
2019-02-19T17:07:32.882Z,75.00
2019-02-19T17:10:03.376Z,74.80
2019-02-19T17:12:33.434Z,75.00
2019-02-19T17:15:13.139Z,75.00
2019-02-19T17:17:52.085Z,75.30
2019-02-19T17:20:29.170Z,75.60
2019-02-19T17:22:59.959Z,75.60
2019-02-19T17:25:30.050Z,75.50
2019-02-19T17:28:05.926Z,75.80
2019-02-19T17:30:35.990Z,75.90
2019-02-19T17:35:53.813Z,75.70
2019-02-19T17:38:30.004Z,75.90
2019-02-19T17:41:03.296Z,76.00
2019-02-19T17:43:45.468Z,76.00
2019-02-19T17:46:21.361Z,76.00
2019-02-19T17:48:51.858Z,75.90
2019-02-19T17:51:21.915Z,76.00
2019-02-19T17:53:52.019Z,75.70
2019-02-19T17:56:25.203Z,75.60
2019-02-19T17:59:01.047Z,74.90
2019-02-19T18:01:34.146Z,74.70
2019-02-19T18:04:07.344Z,74.70
2019-02-19T18:06:53.788Z,74.30
2019-02-19T18:09:23.879Z,73.80
2019-02-19T18:12:09.330Z,73.70
2019-02-19T18:15:00.529Z,73.30
2019-02-19T18:17:46.221Z,73.20
2019-02-19T18:20:14.858Z,72.70
2019-02-19T18:22:44.002Z,72.70
2019-02-19T18:25:12.786Z,72.50
2019-02-19T18:27:41.603Z,72.30
2019-02-19T18:30:11.098Z,72.30
2019-02-19T18:32:39.508Z,72.00
2019-02-19T18:35:08.364Z,72.00
2019-02-19T18:37:36.802Z,72.10
2019-02-19T18:40:06.066Z,72.00
2019-02-19T18:42:34.486Z,72.20
2019-02-19T18:45:03.202Z,71.80
2019-02-19T18:47:31.788Z,72.70
2019-02-19T18:50:00.562Z,72.00
2019-02-19T18:52:29.042Z,71.90
2019-02-19T18:54:57.442Z,71.90
2019-02-19T18:57:25.906Z,71.90
2019-02-19T18:59:54.738Z,72.00
2019-02-19T19:02:23.797Z,72.00
2019-02-19T19:04:52.702Z,72.10
2019-02-19T19:07:21.577Z,72.30
2019-02-19T19:09:50.351Z,72.50
2019-02-19T19:12:18.764Z,73.70
2019-02-19T19:14:47.245Z,74.20
2019-02-19T19:17:16.001Z,74.40
2019-02-19T19:19:44.782Z,74.50
2019-02-19T19:22:13.186Z,74.60
2019-02-19T19:24:41.647Z,74.90
2019-02-19T19:27:10.330Z,74.80
2019-02-19T19:29:39.014Z,74.60
2019-02-19T19:32:07.793Z,74.50
2019-02-19T19:34:36.459Z,74.60
2019-02-19T19:39:40.561Z,75.30
2019-02-19T19:42:09.312Z,74.90
2019-02-19T19:44:37.723Z,75.10
2019-02-19T19:47:06.673Z,75.50
2019-02-19T19:49:35.085Z,75.60
2019-02-19T19:52:03.881Z,75.70
2019-02-19T19:54:32.637Z,75.90
2019-02-19T19:57:01.079Z,76.10
2019-02-19T19:59:29.487Z,76.10
2019-02-19T20:01:58.398Z,75.70
2019-02-19T20:04:27.359Z,76.00
2019-02-19T20:06:55.778Z,76.20
2019-02-19T20:09:24.527Z,76.30
2019-02-19T20:11:53.146Z,76.40
2019-02-19T20:14:21.597Z,76.70
2019-02-19T20:16:50.013Z,76.80
2019-02-19T20:19:18.974Z,77.00
2019-02-19T20:21:47.662Z,77.10
2019-02-19T20:24:16.448Z,77.30
2019-02-19T20:26:45.239Z,77.40
2019-02-19T20:29:13.702Z,77.70
2019-02-19T20:31:42.148Z,77.80
2019-02-19T20:34:10.871Z,78.00
2019-02-19T20:36:39.336Z,77.90
2019-02-19T20:39:10.535Z,78.00
2019-02-19T20:41:39.304Z,77.90
2019-02-19T20:44:07.723Z,77.90
2019-02-19T20:46:36.424Z,78.00
2019-02-19T20:49:05.155Z,77.90
2019-02-19T20:51:36.322Z,78.00
2019-02-19T20:54:04.375Z,78.20
2019-02-19T20:56:33.259Z,78.30
2019-02-19T20:59:01.828Z,78.60
2019-02-19T21:01:30.402Z,78.90
2019-02-19T21:03:59.085Z,78.70
2019-02-19T21:06:27.536Z,78.80
2019-02-19T21:08:55.973Z,79.00
2019-02-19T21:11:24.467Z,79.10
2019-02-19T21:13:53.228Z,79.10
2019-02-19T21:16:21.678Z,79.10
2019-02-19T21:18:52.440Z,79.30
2019-02-19T21:21:21.158Z,79.20
2019-02-19T21:23:49.868Z,79.60
2019-02-19T21:26:18.290Z,79.90
2019-02-19T21:28:47.051Z,80.10
2019-02-19T21:31:15.713Z,80.20
2019-02-19T21:33:44.507Z,80.30
2019-02-19T21:36:13.211Z,80.60
2019-02-19T21:38:41.682Z,80.80
2019-02-19T21:41:10.373Z,81.00
2019-02-19T21:43:39.156Z,81.30
2019-02-19T21:46:07.818Z,81.50
2019-02-19T21:48:36.278Z,81.60
2019-02-19T21:51:04.758Z,81.50
2019-02-19T21:53:33.470Z,82.00
2019-02-19T21:56:02.053Z,81.40
2019-02-19T21:58:30.841Z,81.50
2019-02-19T22:00:59.600Z,81.30
2019-02-19T22:03:28.098Z,81.60
2019-02-19T22:05:56.506Z,81.70
2019-02-19T22:08:24.950Z,82.00
2019-02-19T22:10:53.938Z,82.00
2019-02-19T22:13:22.757Z,82.20
2019-02-19T22:15:51.481Z,82.30
2019-02-19T22:18:20.220Z,82.50
2019-02-19T22:20:50.662Z,82.60
2019-02-19T22:23:19.438Z,82.50
2019-02-19T22:25:47.853Z,82.50
2019-02-19T22:28:17.405Z,82.30
2019-02-19T22:30:45.989Z,82.30
2019-02-19T22:33:14.827Z,82.50
2019-02-19T22:35:43.478Z,82.50
2019-02-19T22:38:12.622Z,82.50
2019-02-19T22:40:41.585Z,82.60
2019-02-19T22:43:10.090Z,82.20
2019-02-19T22:45:38.588Z,82.20
2019-02-19T22:48:07.081Z,82.30
2019-02-19T22:50:35.536Z,82.50
2019-02-19T22:53:05.902Z,82.80
2019-02-19T22:55:36.004Z,82.40
2019-02-19T22:58:04.490Z,82.60
2019-02-19T23:00:49.339Z,82.50
2019-02-19T23:03:19.649Z,83.20
2019-02-19T23:05:48.123Z,82.60
2019-02-19T23:08:16.799Z,82.60
2019-02-19T23:10:45.206Z,82.50
2019-02-19T23:13:14.738Z,82.50
2019-02-19T23:15:43.142Z,82.50
2019-02-19T23:18:11.615Z,82.50
2019-02-19T23:20:40.321Z,82.30
2019-02-19T23:23:08.999Z,82.40
2019-02-19T23:25:37.762Z,82.50
2019-02-19T23:28:06.197Z,82.70
2019-02-19T23:30:34.933Z,82.90
2019-02-19T23:33:03.385Z,83.00
2019-02-19T23:35:33.734Z,83.10
2019-02-19T23:38:02.518Z,83.20
2019-02-19T23:40:31.213Z,83.30
2019-02-19T23:42:59.995Z,83.30
2019-02-19T23:45:28.517Z,83.40
2019-02-19T23:47:57.018Z,83.50
2019-02-19T23:50:25.750Z,83.50
2019-02-19T23:52:54.529Z,83.60
2019-02-19T23:55:23.731Z,83.90
2019-02-19T23:57:52.518Z,84.10
